createdAt,value
2023-06-29T00:11:16.482Z,111
2023-06-29T00:31:16.497Z,111
2023-06-29T00:51:16.487Z,110
2023-06-29T01:11:16.542Z,113
2023-06-29T01:31:16.512Z,112
2023-06-29T01:51:16.508Z,116
2023-06-29T02:11:16.648Z,115
2023-06-29T02:31:16.545Z,112
2023-06-29T02:51:16.577Z,114
2023-06-29T03:11:16.595Z,109
2023-06-29T03:31:16.596Z,115
2023-06-29T03:51:16.628Z,114
2023-06-29T04:11:16.627Z,115
2023-06-29T04:31:16.757Z,114
2023-06-29T04:51:16.825Z,116
2023-06-29T05:11:16.676Z,114
2023-06-29T05:31:16.779Z,113
2023-06-29T05:51:16.677Z,114
2023-06-29T06:11:16.724Z,118
2023-06-29T06:31:28.486Z,117
2023-06-29T06:51:16.760Z,115
2023-06-29T07:11:16.753Z,115
2023-06-29T07:31:16.938Z,114
2023-06-29T07:51:16.751Z,114
2023-06-29T08:11:16.772Z,111
2023-06-29T08:31:16.975Z,111
2023-06-29T08:51:16.826Z,109
2023-06-29T09:11:16.812Z,108
2023-06-29T09:31:16.860Z,109
2023-06-29T09:51:16.995Z,104
2023-06-29T10:11:16.896Z,106
2023-06-29T10:31:16.917Z,110
2023-06-29T10:51:16.870Z,111
2023-06-29T11:11:16.875Z,111
2023-06-29T11:31:16.906Z,105
2023-06-29T11:51:16.891Z,100
2023-06-29T12:11:16.948Z,95
2023-06-29T12:31:17.015Z,98
2023-06-29T12:51:16.945Z,102
2023-06-29T13:11:16.952Z,105
2023-06-29T13:31:16.970Z,108
2023-06-29T13:51:16.984Z,108
2023-06-29T14:11:16.985Z,104
2023-06-29T14:31:17.037Z,104
2023-06-29T14:51:17.002Z,103
2023-06-29T15:11:17.156Z,100
2023-06-29T15:31:17.047Z,98
2023-06-29T15:51:17.035Z,105
2023-06-29T16:11:17.060Z,104
2023-06-29T16:31:17.216Z,102
2023-06-29T16:51:17.136Z,102
2023-06-29T17:11:17.092Z,99
2023-06-29T17:31:17.130Z,102
2023-06-29T17:51:17.167Z,107
2023-06-29T18:11:17.133Z,105
2023-06-29T18:31:17.201Z,105
2023-06-29T18:51:17.172Z,105
2023-06-29T19:11:17.167Z,107
2023-06-29T19:31:17.230Z,103
2023-06-29T19:51:17.233Z,106
2023-06-29T20:11:17.202Z,108
2023-06-29T20:31:17.239Z,108
2023-06-29T20:51:18.382Z,107
2023-06-29T21:11:17.242Z,110
2023-06-29T21:31:17.289Z,110
2023-06-29T21:51:17.259Z,110
2023-06-29T22:11:17.287Z,105
2023-06-29T22:31:17.307Z,107
2023-06-29T22:51:17.346Z,108
2023-06-29T23:11:17.291Z,110
2023-06-29T23:31:17.353Z,109
2023-06-29T23:51:17.341Z,111
